createdAt,value
2018-06-19T00:02:23.985Z,15.70
2018-06-19T00:04:55.559Z,15.80
2018-06-19T00:07:27.182Z,15.70
2018-06-19T00:09:58.880Z,15.60
2018-06-19T00:12:30.425Z,15.50
2018-06-19T00:15:02.099Z,15.40
2018-06-19T00:17:33.631Z,15.30
2018-06-19T00:20:05.554Z,15.30
2018-06-19T00:22:37.115Z,15.30
2018-06-19T00:25:08.921Z,15.20
2018-06-19T00:27:40.593Z,15.20
2018-06-19T00:30:12.171Z,15.10
2018-06-19T00:32:43.894Z,15.00
2018-06-19T00:35:15.445Z,15.00
2018-06-19T00:37:47.293Z,15.00
2018-06-19T00:40:19.265Z,14.90
2018-06-19T00:42:51.208Z,14.90
2018-06-19T00:45:22.816Z,14.90
2018-06-19T00:47:54.705Z,15.00
2018-06-19T00:50:26.301Z,15.00
2018-06-19T00:52:57.922Z,15.10
2018-06-19T00:55:29.678Z,15.10
2018-06-19T00:58:01.274Z,15.10
2018-06-19T01:00:32.933Z,15.10
2018-06-19T01:03:04.433Z,14.90
2018-06-19T01:05:36.067Z,14.90
2018-06-19T01:08:07.537Z,14.90
2018-06-19T01:10:39.148Z,14.90
2018-06-19T01:13:10.651Z,14.90
2018-06-19T01:15:42.360Z,14.80
2018-06-19T01:18:14.018Z,14.70
2018-06-19T01:20:45.589Z,14.70
2018-06-19T01:23:17.072Z,14.70
2018-06-19T01:25:48.780Z,14.70
2018-06-19T01:28:20.285Z,14.70
2018-06-19T01:30:51.898Z,14.70
2018-06-19T01:33:23.554Z,14.70
2018-06-19T01:35:55.228Z,14.70
2018-06-19T01:38:26.814Z,14.70
2018-06-19T01:40:58.493Z,14.80
2018-06-19T01:43:30.125Z,14.80
2018-06-19T01:46:01.906Z,14.70
2018-06-19T01:48:33.470Z,14.60
2018-06-19T01:51:05.137Z,14.60
2018-06-19T01:53:36.670Z,14.60
2018-06-19T01:56:08.357Z,14.60
2018-06-19T01:58:39.995Z,14.60
2018-06-19T02:01:11.665Z,14.50
2018-06-19T02:03:43.320Z,14.50
2018-06-19T02:06:14.977Z,14.50
2018-06-19T02:08:46.653Z,14.40
2018-06-19T02:11:18.303Z,14.40
2018-06-19T02:13:49.904Z,14.30
2018-06-19T02:16:21.538Z,14.30
2018-06-19T02:18:53.216Z,14.20
2018-06-19T02:21:24.786Z,14.20
2018-06-19T02:23:56.471Z,14.20
2018-06-19T02:26:27.939Z,14.10
2018-06-19T02:28:59.577Z,14.10
2018-06-19T02:31:31.206Z,14.10
2018-06-19T02:34:02.845Z,14.10
2018-06-19T02:36:34.436Z,14.10
2018-06-19T02:39:08.489Z,14.10
2018-06-19T02:41:40.418Z,14.20
2018-06-19T02:44:12.180Z,14.30
2018-06-19T02:46:43.741Z,14.30
2018-06-19T02:49:15.354Z,14.20
2018-06-19T02:51:46.978Z,14.20
2018-06-19T02:54:18.702Z,14.30
2018-06-19T02:56:50.286Z,14.30
2018-06-19T02:59:21.867Z,14.30
2018-06-19T03:01:53.566Z,14.30
2018-06-19T03:04:25.108Z,14.40
2018-06-19T03:06:56.909Z,14.40
2018-06-19T03:09:28.525Z,14.40
2018-06-19T03:12:00.199Z,14.50
2018-06-19T03:14:31.729Z,14.60
2018-06-19T03:17:03.425Z,14.60
2018-06-19T03:19:34.907Z,14.60
2018-06-19T03:22:06.649Z,14.70
2018-06-19T03:24:38.393Z,14.70
2018-06-19T03:27:09.978Z,14.70
2018-06-19T03:29:41.644Z,14.80
2018-06-19T03:32:13.244Z,14.80
2018-06-19T03:34:44.893Z,14.80
2018-06-19T03:37:16.454Z,14.90
2018-06-19T03:39:47.961Z,14.90
2018-06-19T03:42:19.482Z,14.90
2018-06-19T03:44:51.220Z,15.00
2018-06-19T03:47:22.974Z,15.00
2018-06-19T03:49:54.601Z,15.00
2018-06-19T03:52:26.377Z,15.00
2018-06-19T03:54:58.337Z,15.00
2018-06-19T03:57:30.009Z,15.00
2018-06-19T04:00:01.671Z,15.10
2018-06-19T04:02:33.326Z,15.10
2018-06-19T04:05:04.830Z,15.10
2018-06-19T04:07:36.461Z,15.10
2018-06-19T04:10:08.205Z,15.20
2018-06-19T04:12:39.951Z,15.20
2018-06-19T04:15:11.553Z,15.30
2018-06-19T04:17:43.188Z,15.40
2018-06-19T04:20:14.777Z,15.40
2018-06-19T04:22:46.401Z,15.40
2018-06-19T04:25:17.986Z,15.40
2018-06-19T04:27:49.612Z,15.50
2018-06-19T04:30:21.298Z,15.50
2018-06-19T04:32:52.885Z,15.50
2018-06-19T04:35:24.509Z,15.60
2018-06-19T04:37:56.207Z,15.60
2018-06-19T04:40:27.736Z,15.70
2018-06-19T04:42:59.318Z,15.80
2018-06-19T04:48:01.932Z,15.90
2018-06-19T04:50:33.414Z,16.00
2018-06-19T04:53:05.124Z,16.10
2018-06-19T04:55:36.796Z,16.10
2018-06-19T04:58:08.362Z,16.20
2018-06-19T05:00:39.901Z,16.20
2018-06-19T05:03:11.471Z,16.20
2018-06-19T05:05:43.183Z,16.20
2018-06-19T05:08:14.748Z,16.20
2018-06-19T05:10:46.368Z,16.20
2018-06-19T05:13:17.980Z,16.20
2018-06-19T05:15:49.581Z,16.20
2018-06-19T05:18:21.522Z,16.30
2018-06-19T05:20:53.121Z,16.40
2018-06-19T05:23:24.808Z,16.40
2018-06-19T05:25:56.325Z,16.50
2018-06-19T05:28:28.010Z,16.60
2018-06-19T05:33:30.495Z,16.80
2018-06-19T05:36:02.117Z,16.80
2018-06-19T05:38:33.869Z,16.90
2018-06-19T05:41:05.450Z,16.90
2018-06-19T05:43:37.249Z,17.00
2018-06-19T05:46:08.987Z,17.00
2018-06-19T05:48:40.646Z,17.00
2018-06-19T05:53:43.443Z,17.10
2018-06-19T05:56:15.099Z,17.30
2018-06-19T05:58:46.694Z,17.40
2018-06-19T06:01:18.425Z,17.50
2018-06-19T06:03:49.996Z,17.60
2018-06-19T06:06:21.703Z,17.60
2018-06-19T06:08:53.282Z,17.70
2018-06-19T06:11:25.018Z,17.70
2018-06-19T06:13:56.756Z,17.70
2018-06-19T06:16:28.422Z,17.80
2018-06-19T06:19:00.125Z,17.90
2018-06-19T06:21:31.698Z,18.00
2018-06-19T06:24:03.377Z,18.10
2018-06-19T06:26:35.080Z,18.20
2018-06-19T06:29:06.625Z,18.30
2018-06-19T06:31:38.358Z,18.50
2018-06-19T06:34:09.898Z,18.60
2018-06-19T06:36:41.613Z,18.70
2018-06-19T06:39:13.260Z,18.90
2018-06-19T06:41:44.929Z,19.00
2018-06-19T06:44:16.886Z,19.10
2018-06-19T06:46:48.608Z,19.20
2018-06-19T06:49:20.265Z,19.20
2018-06-19T06:51:52.017Z,19.30
2018-06-19T06:54:23.566Z,19.40
2018-06-19T06:56:58.984Z,19.60
2018-06-19T06:59:31.413Z,19.80
2018-06-19T07:02:03.015Z,20.00
2018-06-19T07:04:34.716Z,20.10
2018-06-19T07:07:06.334Z,20.20
2018-06-19T07:09:38.002Z,20.30
2018-06-19T07:12:09.845Z,20.40
2018-06-19T07:14:41.453Z,20.40
2018-06-19T07:17:13.839Z,20.50
2018-06-19T07:19:45.504Z,20.60
2018-06-19T07:22:17.113Z,20.70
2018-06-19T07:24:48.810Z,20.60
2018-06-19T07:27:20.467Z,20.70
2018-06-19T07:29:51.972Z,20.70
2018-06-19T07:32:23.669Z,20.80
2018-06-19T07:34:55.233Z,20.80
2018-06-19T07:37:26.990Z,20.90
2018-06-19T07:39:58.510Z,21.00
2018-06-19T07:42:30.192Z,21.00
2018-06-19T07:45:01.848Z,21.10
2018-06-19T07:47:34.187Z,21.00
2018-06-19T07:50:06.178Z,21.00
2018-06-19T07:52:37.848Z,21.00
2018-06-19T07:55:09.349Z,20.90
2018-06-19T07:57:40.989Z,20.80
2018-06-19T08:00:12.501Z,20.80
2018-06-19T08:02:44.102Z,20.70
2018-06-19T08:05:15.733Z,20.60
2018-06-19T08:07:47.306Z,20.50
2018-06-19T08:10:18.893Z,20.40
2018-06-19T08:12:50.525Z,20.60
2018-06-19T08:15:22.200Z,20.80
2018-06-19T08:17:53.798Z,20.80
2018-06-19T08:20:25.408Z,20.80
2018-06-19T08:22:57.337Z,20.80
2018-06-19T08:25:28.849Z,20.70
2018-06-19T08:28:00.528Z,20.70
2018-06-19T08:30:32.042Z,20.80
2018-06-19T08:33:03.671Z,20.90
2018-06-19T08:35:35.345Z,21.00
2018-06-19T08:38:07.152Z,21.00
2018-06-19T08:40:38.812Z,21.00
2018-06-19T08:43:10.478Z,20.90
2018-06-19T08:45:42.250Z,21.00
2018-06-19T08:48:13.820Z,21.00
2018-06-19T08:50:45.540Z,21.10
2018-06-19T08:53:17.232Z,21.30
2018-06-19T08:55:48.819Z,21.60
2018-06-19T08:58:20.511Z,21.70
2018-06-19T09:00:52.168Z,21.70
2018-06-19T09:03:23.726Z,21.60
2018-06-19T09:05:55.352Z,21.60
2018-06-19T09:08:27.157Z,21.50
2018-06-19T09:10:58.808Z,21.50
2018-06-19T09:13:30.481Z,21.50
2018-06-19T09:16:02.208Z,21.40
2018-06-19T09:18:33.786Z,21.40
2018-06-19T09:21:05.812Z,21.30
2018-06-19T09:23:37.717Z,21.30
2018-06-19T09:26:09.857Z,21.30
2018-06-19T09:28:41.441Z,21.40
2018-06-19T09:31:13.236Z,21.40
2018-06-19T09:33:44.812Z,21.50
2018-06-19T09:36:17.594Z,21.60
2018-06-19T09:38:49.265Z,21.60
2018-06-19T09:41:20.886Z,21.70
2018-06-19T09:43:52.632Z,21.80
2018-06-19T09:46:24.314Z,21.80
2018-06-19T09:48:56.237Z,21.80
2018-06-19T09:51:28.059Z,21.90
2018-06-19T09:53:59.905Z,22.00
2018-06-19T09:56:31.531Z,22.10
2018-06-19T09:59:03.255Z,22.20
2018-06-19T10:01:34.953Z,22.20
2018-06-19T10:04:06.668Z,22.20
2018-06-19T10:06:38.249Z,22.30
2018-06-19T10:09:10.878Z,22.40
2018-06-19T10:11:42.541Z,22.50
2018-06-19T10:14:14.129Z,22.60
2018-06-19T10:16:45.935Z,22.70
2018-06-19T10:19:17.667Z,22.80
2018-06-19T10:21:49.254Z,22.90
2018-06-19T10:24:20.929Z,23.20
2018-06-19T10:26:52.581Z,23.50
2018-06-19T10:29:24.238Z,23.70
2018-06-19T10:31:55.884Z,23.90
2018-06-19T10:34:27.553Z,23.90
2018-06-19T10:36:59.063Z,23.80
2018-06-19T10:39:30.777Z,23.80
2018-06-19T10:42:02.418Z,23.90
2018-06-19T10:44:34.101Z,24.10
2018-06-19T10:47:05.890Z,24.20
2018-06-19T10:49:37.516Z,24.20
2018-06-19T10:52:09.208Z,24.10
2018-06-19T10:54:40.866Z,24.00
2018-06-19T10:57:12.422Z,23.90
2018-06-19T10:59:44.018Z,23.90
2018-06-19T11:02:15.549Z,24.10
2018-06-19T11:04:47.321Z,24.20
2018-06-19T11:07:22.877Z,24.20
2018-06-19T11:09:54.426Z,24.20
2018-06-19T11:12:26.024Z,24.20
2018-06-19T11:14:57.805Z,24.20
2018-06-19T11:17:29.385Z,24.20
2018-06-19T11:20:01.074Z,24.30
2018-06-19T11:22:32.730Z,24.30
2018-06-19T11:25:04.263Z,24.30
2018-06-19T11:27:35.780Z,24.30
2018-06-19T11:30:07.505Z,24.30
2018-06-19T11:32:39.195Z,24.40
2018-06-19T11:35:10.817Z,24.50
2018-06-19T11:37:42.703Z,24.50
2018-06-19T11:40:14.477Z,24.60
2018-06-19T11:42:46.064Z,24.70
2018-06-19T11:45:17.820Z,24.70
2018-06-19T11:47:49.215Z,24.90
2018-06-19T11:50:20.942Z,25.00
2018-06-19T11:52:52.589Z,24.90
2018-06-19T11:57:55.167Z,24.60
2018-06-19T12:00:26.897Z,24.50
2018-06-19T12:02:58.450Z,24.60
2018-06-19T12:05:30.155Z,24.70
2018-06-19T12:08:01.812Z,24.70
2018-06-19T12:10:33.377Z,24.70
2018-06-19T12:13:04.885Z,24.60
2018-06-19T12:15:36.494Z,24.50
2018-06-19T12:18:08.085Z,24.50
2018-06-19T12:20:39.673Z,24.50
2018-06-19T12:23:11.348Z,24.70
2018-06-19T12:25:42.920Z,24.80
2018-06-19T12:28:14.500Z,24.80
2018-06-19T12:30:46.133Z,24.70
2018-06-19T12:33:17.813Z,24.60
2018-06-19T12:35:49.533Z,24.70
2018-06-19T12:38:21.194Z,24.70
2018-06-19T12:40:52.808Z,24.80
2018-06-19T12:43:24.487Z,24.80
2018-06-19T12:45:56.247Z,24.90
2018-06-19T12:48:27.960Z,24.90
2018-06-19T12:52:14.561Z,24.70
2018-06-19T12:55:24.871Z,24.70
2018-06-19T12:57:56.637Z,24.60
2018-06-19T13:00:28.273Z,24.60
2018-06-19T13:03:16.030Z,24.70
2018-06-19T13:06:03.968Z,24.70
2018-06-19T13:08:35.801Z,24.90
2018-06-19T13:11:07.896Z,24.90
2018-06-19T13:13:55.628Z,24.80
2018-06-19T13:16:43.344Z,24.70
2018-06-19T13:19:31.300Z,24.60
2018-06-19T13:22:02.974Z,24.70
2018-06-19T13:24:34.612Z,24.70
2018-06-19T13:27:06.199Z,24.70
2018-06-19T13:29:55.077Z,24.60
2018-06-19T13:32:26.871Z,24.70
2018-06-19T13:34:58.441Z,24.70
2018-06-19T13:37:30.143Z,24.70
2018-06-19T13:41:25.008Z,24.70
2018-06-19T13:44:14.225Z,24.70
2018-06-19T13:46:45.813Z,24.60
2018-06-19T13:49:17.545Z,24.70
2018-06-19T13:51:49.125Z,24.80
2018-06-19T13:54:20.805Z,25.00
2018-06-19T13:57:23.841Z,25.00
2018-06-19T13:59:55.463Z,25.10
2018-06-19T14:02:27.241Z,25.00
2018-06-19T14:04:59.201Z,24.90
2018-06-19T14:07:32.794Z,24.70
2018-06-19T14:10:21.891Z,24.70
2018-06-19T14:12:57.593Z,24.60
2018-06-19T14:15:30.340Z,24.60
2018-06-19T14:18:02.029Z,24.70
2018-06-19T14:20:33.715Z,24.80
2018-06-19T14:23:05.580Z,25.00
2018-06-19T14:25:37.262Z,25.20
2018-06-19T14:28:08.968Z,25.10
2018-06-19T14:30:40.678Z,25.00
2018-06-19T14:33:12.344Z,24.90
2018-06-19T14:35:44.099Z,24.80
2018-06-19T14:38:15.680Z,24.70
2018-06-19T14:40:47.248Z,24.60
2018-06-19T14:43:18.839Z,24.70
2018-06-19T14:45:50.566Z,24.60
2018-06-19T14:48:22.216Z,24.60
2018-06-19T14:50:53.938Z,24.70
2018-06-19T14:53:25.572Z,24.70
2018-06-19T14:55:57.288Z,24.70
2018-06-19T14:58:28.846Z,24.70
2018-06-19T15:01:00.411Z,24.70
2018-06-19T15:03:32.061Z,24.70
2018-06-19T15:06:03.636Z,24.70
2018-06-19T15:08:35.401Z,24.80
2018-06-19T15:11:07.218Z,24.80
2018-06-19T15:13:38.886Z,24.80
2018-06-19T15:16:10.597Z,24.80
2018-06-19T15:18:42.173Z,24.70
2018-06-19T15:21:13.952Z,24.50
2018-06-19T15:23:45.608Z,24.50
2018-06-19T15:26:17.272Z,24.40
2018-06-19T15:28:48.765Z,24.30
2018-06-19T15:31:20.481Z,24.30
2018-06-19T15:33:51.986Z,24.30
2018-06-19T15:36:23.606Z,24.30
2018-06-19T15:38:55.341Z,24.30
2018-06-19T15:41:26.920Z,24.40
2018-06-19T15:46:29.514Z,24.40
2018-06-19T15:49:01.116Z,24.30
2018-06-19T15:51:33.173Z,24.30
2018-06-19T15:54:05.194Z,24.30
2018-06-19T15:56:36.835Z,24.30
2018-06-19T15:59:08.492Z,24.40
2018-06-19T16:01:40.108Z,24.40
2018-06-19T16:04:11.561Z,24.40
2018-06-19T16:06:43.267Z,24.40
2018-06-19T16:09:14.904Z,24.40
2018-06-19T16:11:46.498Z,24.40
2018-06-19T16:14:18.241Z,24.40
2018-06-19T16:19:20.873Z,24.30
2018-06-19T16:21:52.585Z,24.30
2018-06-19T16:24:24.080Z,24.30
2018-06-19T16:26:55.797Z,24.20
2018-06-19T16:29:27.305Z,24.20
2018-06-19T16:31:59.007Z,24.20
2018-06-19T16:34:30.515Z,24.20
2018-06-19T16:37:02.147Z,24.10
2018-06-19T16:39:33.886Z,24.10
2018-06-19T16:44:36.412Z,24.00
2018-06-19T16:47:08.249Z,24.00
2018-06-19T16:49:39.879Z,24.00
2018-06-19T16:52:11.543Z,23.90
2018-06-19T16:54:43.192Z,23.90
2018-06-19T16:57:14.613Z,23.90
2018-06-19T16:59:46.150Z,23.80
2018-06-19T17:02:17.784Z,23.80
2018-06-19T17:04:49.257Z,23.80
2018-06-19T17:07:20.934Z,23.80
2018-06-19T17:09:52.625Z,23.80
2018-06-19T17:12:24.241Z,23.70
2018-06-19T17:14:55.886Z,23.60
2018-06-19T17:17:27.656Z,23.70
2018-06-19T17:19:59.201Z,23.70
2018-06-19T17:22:30.931Z,23.60
2018-06-19T17:25:02.661Z,23.60
2018-06-19T17:27:34.273Z,23.60
2018-06-19T17:30:06.142Z,23.60
2018-06-19T17:32:37.729Z,23.60
2018-06-19T17:35:09.381Z,23.50
2018-06-19T17:37:40.961Z,23.50
2018-06-19T17:40:12.549Z,23.50
2018-06-19T17:42:44.153Z,23.50
2018-06-19T17:45:15.796Z,23.40
2018-06-19T17:47:47.516Z,23.50
2018-06-19T17:50:19.106Z,23.40
2018-06-19T17:52:50.705Z,23.40
2018-06-19T17:55:22.285Z,23.30
2018-06-19T17:57:53.947Z,23.30
2018-06-19T18:00:26.250Z,23.30
2018-06-19T18:02:57.837Z,23.30
2018-06-19T18:05:29.431Z,23.20
2018-06-19T18:08:01.035Z,23.20
2018-06-19T18:10:32.675Z,23.20
2018-06-19T18:13:04.234Z,23.10
2018-06-19T18:15:35.816Z,23.10
2018-06-19T18:18:07.487Z,23.10
2018-06-19T18:20:39.132Z,23.00
2018-06-19T18:23:10.794Z,23.00
2018-06-19T18:25:42.396Z,23.00
2018-06-19T18:28:14.109Z,22.90
2018-06-19T18:30:45.849Z,22.90
2018-06-19T18:33:17.491Z,22.80
2018-06-19T18:35:49.101Z,22.80
2018-06-19T18:38:20.801Z,22.70
2018-06-19T18:40:52.448Z,22.70
2018-06-19T18:43:24.045Z,22.70
2018-06-19T18:45:55.715Z,22.60
2018-06-19T18:48:27.388Z,22.60
2018-06-19T18:50:59.249Z,22.50
2018-06-19T18:53:30.858Z,22.50
2018-06-19T18:56:02.514Z,22.40
2018-06-19T18:58:34.164Z,22.40
2018-06-19T19:01:05.662Z,22.30
2018-06-19T19:03:37.367Z,22.30
2018-06-19T19:06:08.977Z,22.30
2018-06-19T19:08:40.609Z,22.30
2018-06-19T19:11:12.293Z,22.20
2018-06-19T19:13:43.991Z,22.20
2018-06-19T19:16:20.504Z,22.10
2018-06-19T19:18:57.122Z,22.00
2018-06-19T19:21:28.793Z,22.00
2018-06-19T19:24:00.253Z,22.00
2018-06-19T19:26:36.916Z,21.90
2018-06-19T19:29:13.694Z,21.90
2018-06-19T19:31:45.524Z,21.80
2018-06-19T19:34:17.275Z,21.80
2018-06-19T19:36:53.680Z,21.70
2018-06-19T19:39:28.978Z,21.60
2018-06-19T19:42:00.645Z,21.60
2018-06-19T19:44:32.386Z,21.60
2018-06-19T19:47:08.795Z,21.50
2018-06-19T19:49:40.467Z,21.50
2018-06-19T19:52:12.119Z,21.40
2018-06-19T19:54:43.780Z,21.40
2018-06-19T19:57:20.054Z,21.40
2018-06-19T19:59:51.740Z,21.30
2018-06-19T20:02:23.580Z,21.30
2018-06-19T20:04:55.272Z,21.20
2018-06-19T20:07:26.941Z,21.20
2018-06-19T20:09:58.555Z,21.10
2018-06-19T20:12:30.061Z,21.00
2018-06-19T20:15:01.660Z,21.00
2018-06-19T20:17:33.345Z,20.90
2018-06-19T20:20:06.250Z,20.90
2018-06-19T20:22:38.084Z,20.90
2018-06-19T20:25:10.109Z,20.80
2018-06-19T20:27:41.821Z,20.60
2018-06-19T20:30:13.416Z,20.50
2018-06-19T20:32:44.920Z,20.40
2018-06-19T20:35:16.638Z,20.30
2018-06-19T20:37:48.284Z,20.40
2018-06-19T20:40:19.991Z,20.40
2018-06-19T20:42:51.768Z,20.40
2018-06-19T20:45:23.745Z,20.40
2018-06-19T20:47:55.265Z,20.40
2018-06-19T20:50:26.973Z,20.40
2018-06-19T20:52:58.480Z,20.30
2018-06-19T20:55:30.234Z,20.30
2018-06-19T20:58:01.922Z,20.30
2018-06-19T21:00:33.530Z,20.30
2018-06-19T21:03:05.135Z,20.30
2018-06-19T21:05:36.813Z,20.20
2018-06-19T21:08:08.645Z,20.20
2018-06-19T21:10:40.329Z,20.20
2018-06-19T21:13:11.872Z,20.20
2018-06-19T21:15:43.608Z,20.10
2018-06-19T21:18:15.257Z,20.10
2018-06-19T21:20:46.885Z,20.10
2018-06-19T21:23:18.472Z,20.00
2018-06-19T21:25:50.072Z,20.00
2018-06-19T21:28:21.618Z,20.00
2018-06-19T21:30:53.210Z,19.90
2018-06-19T21:33:24.875Z,19.90
2018-06-19T21:35:56.575Z,19.80
2018-06-19T21:38:28.317Z,19.70
2018-06-19T21:40:59.933Z,19.60
2018-06-19T21:43:31.617Z,19.50
2018-06-19T21:46:03.214Z,19.40
2018-06-19T21:48:34.860Z,19.30
2018-06-19T21:51:06.556Z,19.30
2018-06-19T21:53:38.285Z,19.20
2018-06-19T21:56:09.874Z,19.20
2018-06-19T21:58:41.605Z,19.20
2018-06-19T22:01:13.179Z,19.10
2018-06-19T22:03:45.608Z,19.00
2018-06-19T22:06:17.387Z,19.00
2018-06-19T22:08:53.868Z,18.90
2018-06-19T22:11:25.856Z,18.80
2018-06-19T22:13:57.593Z,18.90
2018-06-19T22:16:29.170Z,18.80
2018-06-19T22:19:00.779Z,18.80
2018-06-19T22:21:32.352Z,18.70
2018-06-19T22:24:04.056Z,18.70
2018-06-19T22:26:35.988Z,18.60
2018-06-19T22:29:07.575Z,18.60
2018-06-19T22:31:39.277Z,18.60
2018-06-19T22:34:10.881Z,18.40
2018-06-19T22:36:42.469Z,18.40
2018-06-19T22:39:14.157Z,18.30
2018-06-19T22:41:45.863Z,18.20
2018-06-19T22:44:17.428Z,18.20
2018-06-19T22:46:49.017Z,18.10
2018-06-19T22:49:20.626Z,18.10
2018-06-19T22:51:52.250Z,18.00
2018-06-19T22:54:23.962Z,17.90
2018-06-19T22:56:55.561Z,17.90
2018-06-19T22:59:27.177Z,17.90
2018-06-19T23:01:58.758Z,17.80
2018-06-19T23:04:30.368Z,17.80
2018-06-19T23:07:02.061Z,17.70
2018-06-19T23:09:33.549Z,17.60
2018-06-19T23:12:05.374Z,17.60
2018-06-19T23:14:37.016Z,17.50
2018-06-19T23:17:11.449Z,17.50
2018-06-19T23:22:14.196Z,17.40
2018-06-19T23:24:45.821Z,17.40
2018-06-19T23:27:17.302Z,17.40
2018-06-19T23:29:48.937Z,17.40
2018-06-19T23:32:20.462Z,17.30
2018-06-19T23:34:52.041Z,17.30
2018-06-19T23:37:23.578Z,17.20
2018-06-19T23:39:55.157Z,17.20
2018-06-19T23:42:26.725Z,17.10
2018-06-19T23:44:58.503Z,17.10
2018-06-19T23:47:30.077Z,17.00
2018-06-19T23:50:01.754Z,16.90
2018-06-19T23:52:33.328Z,16.70
2018-06-19T23:55:04.961Z,16.70
2018-06-19T23:57:36.495Z,16.70
